Aviation Digital Data Service (ADDS)

Output produced by TAFs form (2113 UTC 20 November 2017)
found at http://www.aviationweather.gov/adds/tafs/
 
KRWF 201720Z 2018/2118 22011KT P6SM BKN250 
     FM210200 25011KT P6SM SCT250 
     FM210500 29014KT P6SM SCT250 
     FM210800 31017G29KT P6SM SCT200 
     FM211100 32021G30KT P6SM BKN080 
     FM211600 32024G33KT P6SM SCT200
       
KMSP 202100Z 2021/2124 21008KT P6SM BKN150 
     FM210100 22010KT P6SM BKN200 
     FM210400 27011KT P6SM SCT250 
     FM210800 29015G22KT P6SM BKN050 
     FM211200 30019G28KT P6SM OVC050 
     FM211700 31021G30KT P6SM SCT150